createdAt,value
2022-12-14T00:00:06.207Z,980.81
2022-12-14T00:01:06.242Z,980.83
2022-12-14T00:02:06.229Z,980.86
2022-12-14T00:03:06.247Z,980.87
2022-12-14T00:04:06.177Z,980.88
2022-12-14T00:05:06.168Z,980.94
2022-12-14T00:06:06.181Z,980.89
2022-12-14T00:07:06.166Z,980.90
2022-12-14T00:08:06.145Z,980.87
2022-12-14T00:09:06.127Z,980.85
2022-12-14T00:10:06.096Z,980.79
2022-12-14T00:11:10.898Z,980.81
2022-12-14T00:12:06.551Z,980.82
2022-12-14T00:13:06.077Z,980.75
2022-12-14T00:14:06.084Z,980.69
2022-12-14T00:15:06.067Z,980.64
2022-12-14T00:16:06.087Z,980.66
2022-12-14T00:17:06.234Z,980.55
2022-12-14T00:18:06.036Z,980.55
2022-12-14T00:19:06.070Z,980.54
2022-12-14T00:20:06.006Z,980.49
2022-12-14T00:21:05.997Z,980.44
2022-12-14T00:22:05.989Z,980.55
2022-12-14T00:23:05.977Z,980.52
2022-12-14T00:24:05.977Z,980.59
2022-12-14T00:25:05.957Z,980.53
2022-12-14T00:26:05.947Z,980.51
2022-12-14T00:27:05.968Z,980.49
2022-12-14T00:28:06.867Z,980.42
2022-12-14T00:29:05.938Z,980.47
2022-12-14T00:30:05.908Z,980.43
2022-12-14T00:31:06.004Z,980.51
2022-12-14T00:32:05.867Z,980.43
2022-12-14T00:33:05.907Z,980.45
2022-12-14T00:34:05.847Z,980.49
2022-12-14T00:35:05.856Z,980.43
2022-12-14T00:36:05.848Z,980.46
2022-12-14T00:37:05.849Z,980.44
2022-12-14T00:38:05.830Z,980.46
2022-12-14T00:39:05.816Z,980.47
2022-12-14T00:40:05.815Z,980.45
2022-12-14T00:41:05.818Z,980.40
2022-12-14T00:42:05.801Z,980.41
2022-12-14T00:43:05.786Z,980.34
2022-12-14T00:44:05.757Z,980.32
2022-12-14T00:45:05.797Z,980.30
2022-12-14T00:46:05.792Z,980.24
2022-12-14T00:47:05.728Z,980.27
2022-12-14T00:48:05.717Z,980.29
2022-12-14T00:49:05.738Z,980.25
2022-12-14T00:50:05.708Z,980.28
2022-12-14T00:51:05.707Z,980.31
2022-12-14T00:52:05.678Z,980.33
2022-12-14T00:53:05.668Z,980.34
2022-12-14T00:54:05.671Z,980.38
2022-12-14T00:55:05.682Z,980.32
2022-12-14T00:56:05.655Z,980.38
2022-12-14T00:57:05.652Z,980.35
2022-12-14T00:58:05.611Z,980.29
2022-12-14T00:59:05.610Z,980.36
2022-12-14T01:00:05.619Z,980.32
2022-12-14T01:01:05.624Z,980.33
2022-12-14T01:02:05.755Z,980.29
2022-12-14T01:03:05.568Z,980.28
2022-12-14T01:04:05.689Z,980.31
2022-12-14T01:05:05.582Z,980.32
2022-12-14T01:06:05.529Z,980.31
2022-12-14T01:07:05.558Z,980.34
2022-12-14T01:08:05.560Z,980.35
2022-12-14T01:09:05.509Z,980.31
2022-12-14T01:10:05.492Z,980.36
2022-12-14T01:11:05.509Z,980.38
2022-12-14T01:12:05.491Z,980.33
2022-12-14T01:13:05.507Z,980.39
2022-12-14T01:14:05.461Z,980.36
2022-12-14T01:15:05.488Z,980.36
2022-12-14T01:16:05.518Z,980.36
2022-12-14T01:17:05.428Z,980.39
2022-12-14T01:18:05.467Z,980.36
2022-12-14T01:19:05.448Z,980.38
2022-12-14T01:20:05.378Z,980.36
2022-12-14T01:21:05.388Z,980.32
2022-12-14T01:22:06.327Z,980.41
2022-12-14T01:23:05.397Z,980.31
2022-12-14T01:24:05.349Z,980.27
2022-12-14T01:25:05.370Z,980.36
2022-12-14T01:26:05.323Z,980.26
2022-12-14T01:27:05.335Z,980.24
2022-12-14T01:28:05.297Z,980.27
2022-12-14T01:29:05.307Z,980.19
2022-12-14T01:30:05.318Z,980.15
2022-12-14T01:31:05.324Z,980.13
2022-12-14T01:32:05.272Z,980.09
2022-12-14T01:33:05.277Z,980.12
2022-12-14T01:34:05.235Z,980.08
2022-12-14T01:35:05.254Z,980.10
2022-12-14T01:36:05.251Z,980.13
2022-12-14T01:37:05.218Z,980.16
2022-12-14T01:38:05.240Z,980.17
2022-12-14T01:39:05.221Z,980.17
2022-12-14T01:40:05.249Z,980.17
2022-12-14T01:41:05.198Z,980.13
2022-12-14T01:42:05.158Z,980.14
2022-12-14T01:43:05.157Z,980.12
2022-12-14T01:44:05.147Z,980.15
2022-12-14T01:45:05.187Z,980.17
2022-12-14T01:46:05.237Z,980.14
2022-12-14T01:47:10.545Z,980.12
2022-12-14T01:48:06.099Z,980.13
2022-12-14T01:49:05.099Z,980.11
2022-12-14T01:50:05.087Z,980.12
2022-12-14T01:51:05.079Z,980.13
2022-12-14T01:52:05.081Z,980.13
2022-12-14T01:53:05.071Z,980.19
2022-12-14T01:54:05.030Z,980.18
2022-12-14T01:55:05.053Z,980.17
2022-12-14T01:56:05.031Z,980.19
2022-12-14T01:57:05.968Z,980.15
2022-12-14T01:58:05.020Z,980.13
2022-12-14T01:59:04.990Z,980.09
2022-12-14T02:00:07.391Z,980.03
2022-12-14T02:01:04.976Z,980.07
2022-12-14T02:02:05.013Z,980.07
2022-12-14T02:03:05.058Z,980.05
2022-12-14T02:04:04.977Z,980.13
2022-12-14T02:05:04.949Z,980.09
2022-12-14T02:06:04.954Z,980.12
2022-12-14T02:07:04.947Z,980.11
2022-12-14T02:08:04.912Z,980.10
2022-12-14T02:09:04.903Z,980.12
2022-12-14T02:10:04.904Z,980.10
2022-12-14T02:11:04.913Z,980.09
2022-12-14T02:12:04.876Z,980.06
2022-12-14T02:13:04.901Z,980.07
2022-12-14T02:14:04.849Z,980.09
2022-12-14T02:15:04.829Z,980.07
2022-12-14T02:16:04.856Z,980.05
2022-12-14T02:17:04.830Z,980.05
2022-12-14T02:18:04.804Z,980.05
2022-12-14T02:19:04.812Z,980.04
2022-12-14T02:20:04.767Z,980.10
2022-12-14T02:21:04.799Z,980.12
2022-12-14T02:22:04.750Z,980.11
2022-12-14T02:23:04.761Z,980.08
2022-12-14T02:24:04.718Z,980.04
2022-12-14T02:25:04.750Z,980.06
2022-12-14T02:26:04.699Z,980.05
2022-12-14T02:27:04.753Z,980.01
2022-12-14T02:28:04.689Z,980.04
2022-12-14T02:29:04.730Z,980.01
2022-12-14T02:30:04.680Z,980.03
2022-12-14T02:31:04.792Z,980.00
2022-12-14T02:32:04.660Z,979.97
2022-12-14T02:33:04.651Z,979.86
2022-12-14T02:34:04.656Z,979.86
2022-12-14T02:35:04.640Z,979.88
2022-12-14T02:36:04.599Z,979.80
2022-12-14T02:37:04.618Z,979.78
2022-12-14T02:38:04.613Z,979.78
2022-12-14T02:39:04.610Z,979.72
2022-12-14T02:40:04.569Z,979.72
2022-12-14T02:41:04.576Z,979.68
2022-12-14T02:42:04.601Z,979.65
2022-12-14T02:43:04.539Z,979.61
2022-12-14T02:44:04.530Z,979.56
2022-12-14T02:45:04.541Z,979.51
2022-12-14T02:46:04.531Z,979.47
2022-12-14T02:47:04.520Z,979.48
2022-12-14T02:48:04.520Z,979.43
2022-12-14T02:49:04.481Z,979.42
2022-12-14T02:50:04.540Z,979.44
2022-12-14T02:51:04.450Z,979.40
2022-12-14T02:52:04.550Z,979.37
2022-12-14T02:53:04.432Z,979.33
2022-12-14T02:54:04.429Z,979.29
2022-12-14T02:55:04.411Z,979.30
2022-12-14T02:56:04.439Z,979.33
2022-12-14T02:57:04.389Z,979.28
2022-12-14T02:58:04.399Z,979.23
2022-12-14T03:00:01.149Z,979.27
2022-12-14T03:01:01.320Z,979.25
2022-12-14T03:02:01.206Z,979.26
2022-12-14T03:03:01.119Z,979.28
2022-12-14T03:04:01.078Z,979.26
2022-12-14T03:05:01.048Z,979.20
2022-12-14T03:06:01.069Z,979.17
2022-12-14T03:07:01.047Z,979.14
2022-12-14T03:08:01.039Z,979.04
2022-12-14T03:09:01.029Z,979.03
2022-12-14T03:10:01.039Z,979.02
2022-12-14T03:11:00.989Z,979.00
2022-12-14T03:12:00.999Z,979.01
2022-12-14T03:13:01.037Z,979.01
2022-12-14T03:14:00.979Z,978.97
2022-12-14T03:15:00.949Z,978.97
2022-12-14T03:16:00.995Z,978.88
2022-12-14T03:17:00.930Z,978.92
2022-12-14T03:18:01.007Z,978.94
2022-12-14T03:19:00.918Z,978.92
2022-12-14T03:20:00.979Z,978.96
2022-12-14T03:21:00.935Z,978.95
2022-12-14T03:22:00.892Z,978.98
2022-12-14T03:23:00.880Z,978.95
2022-12-14T03:24:01.839Z,978.93
2022-12-14T03:25:00.878Z,978.93
2022-12-14T03:26:00.921Z,978.96
2022-12-14T03:27:00.838Z,978.91
2022-12-14T03:28:00.838Z,978.88
2022-12-14T03:29:00.819Z,978.88
2022-12-14T03:30:00.819Z,978.82
2022-12-14T03:31:01.144Z,978.84
2022-12-14T03:32:00.823Z,978.82
2022-12-14T03:33:00.759Z,978.81
2022-12-14T03:34:00.758Z,978.75
2022-12-14T03:35:00.740Z,978.76
2022-12-14T03:36:00.759Z,978.71
2022-12-14T03:37:00.720Z,978.73
2022-12-14T03:38:00.729Z,978.68
2022-12-14T03:39:00.729Z,978.71
2022-12-14T03:40:00.717Z,978.72
2022-12-14T03:41:00.729Z,978.73
2022-12-14T03:42:00.731Z,978.71
2022-12-14T03:43:00.660Z,978.69
2022-12-14T03:44:00.651Z,978.62
2022-12-14T03:45:00.629Z,978.63
2022-12-14T03:46:00.686Z,978.64
2022-12-14T03:47:00.650Z,978.63
2022-12-14T03:48:00.619Z,978.61
2022-12-14T03:49:00.580Z,978.60
2022-12-14T03:50:00.627Z,978.60
2022-12-14T03:51:00.580Z,978.57
2022-12-14T03:52:00.573Z,978.64
2022-12-14T03:53:00.558Z,978.60
2022-12-14T03:54:01.504Z,978.63
2022-12-14T03:55:00.520Z,978.68
2022-12-14T03:56:00.520Z,978.61
2022-12-14T03:57:00.501Z,978.61
2022-12-14T03:58:00.510Z,978.63
2022-12-14T03:59:00.488Z,978.60
2022-12-14T04:00:00.515Z,978.55
2022-12-14T04:01:00.518Z,978.58
2022-12-14T04:02:00.534Z,978.53
2022-12-14T04:03:00.526Z,978.50
2022-12-14T04:04:00.472Z,978.52
2022-12-14T04:05:00.440Z,978.38
2022-12-14T04:06:00.423Z,978.44
2022-12-14T04:07:00.389Z,978.44
2022-12-14T04:08:00.400Z,978.45
2022-12-14T04:09:00.378Z,978.43
2022-12-14T04:10:00.394Z,978.38
2022-12-14T04:11:00.369Z,978.46
2022-12-14T04:12:00.382Z,978.42
2022-12-14T04:13:00.369Z,978.44
2022-12-14T04:14:00.339Z,978.44
2022-12-14T04:15:00.310Z,978.41
2022-12-14T04:16:00.310Z,978.36
2022-12-14T04:17:00.289Z,978.45
2022-12-14T04:18:00.311Z,978.37
2022-12-14T04:19:00.878Z,978.36
2022-12-14T04:20:00.949Z,978.27
2022-12-14T04:21:00.268Z,978.26
2022-12-14T04:22:00.311Z,978.22
2022-12-14T04:23:00.220Z,978.19
2022-12-14T04:24:00.231Z,978.17
2022-12-14T04:25:01.181Z,978.14
2022-12-14T04:26:00.210Z,978.11
2022-12-14T04:27:00.193Z,978.08
2022-12-14T04:28:00.199Z,978.11
2022-12-14T04:29:00.210Z,978.06
2022-12-14T04:30:00.161Z,978.03
2022-12-14T04:31:00.149Z,978.00
2022-12-14T04:32:00.316Z,977.98
2022-12-14T04:33:00.131Z,977.96
2022-12-14T04:34:01.070Z,977.98
2022-12-14T04:35:00.117Z,977.93
2022-12-14T04:36:00.112Z,977.93
2022-12-14T04:37:00.087Z,977.92
2022-12-14T04:38:00.079Z,977.97
2022-12-14T04:39:00.073Z,977.98
2022-12-14T04:40:00.097Z,977.96
2022-12-14T04:41:00.031Z,978.02
2022-12-14T04:42:00.050Z,978.00
2022-12-14T04:43:00.057Z,978.01
2022-12-14T04:44:00.040Z,977.94
2022-12-14T04:45:00.008Z,977.95
2022-12-14T04:46:00.191Z,977.96
2022-12-14T04:47:00.001Z,977.94
2022-12-14T04:48:00.000Z,977.93
2022-12-14T04:48:59.972Z,977.96
2022-12-14T04:49:59.966Z,977.93
2022-12-14T04:50:59.923Z,977.91
2022-12-14T04:52:04.989Z,977.98
2022-12-14T04:53:00.910Z,977.93
2022-12-14T04:53:59.913Z,977.97
2022-12-14T04:54:59.881Z,977.93
2022-12-14T04:55:59.930Z,977.95
2022-12-14T04:56:59.890Z,977.93
2022-12-14T04:57:59.870Z,977.89
2022-12-14T04:58:59.844Z,977.92
2022-12-14T04:59:59.902Z,977.85
2022-12-14T05:00:59.883Z,977.90
2022-12-14T05:02:00.013Z,977.87
2022-12-14T05:02:59.844Z,977.85
2022-12-14T05:03:59.810Z,977.81
2022-12-14T05:04:59.801Z,977.78
2022-12-14T05:05:59.804Z,977.82
2022-12-14T05:06:59.750Z,977.83
2022-12-14T05:07:59.760Z,977.76
2022-12-14T05:08:59.759Z,977.75
2022-12-14T05:09:59.742Z,977.81
2022-12-14T05:11:21.880Z,977.75
2022-12-14T05:12:00.757Z,977.76
2022-12-14T05:12:59.691Z,977.78
2022-12-14T05:13:59.696Z,977.75
2022-12-14T05:14:59.690Z,977.72
2022-12-14T05:15:59.690Z,977.73
2022-12-14T05:17:03.454Z,977.73
2022-12-14T05:18:00.691Z,977.70
2022-12-14T05:18:59.633Z,977.65
2022-12-14T05:19:59.690Z,977.73
2022-12-14T05:20:59.621Z,977.67
2022-12-14T05:21:59.649Z,977.65
2022-12-14T05:22:59.590Z,977.65
2022-12-14T05:23:59.621Z,977.63
2022-12-14T05:25:01.242Z,977.63
2022-12-14T05:25:59.580Z,977.64
2022-12-14T05:26:59.563Z,977.59
2022-12-14T05:27:59.560Z,977.56
2022-12-14T05:28:59.540Z,977.57
2022-12-14T05:29:59.532Z,977.57
2022-12-14T05:31:00.254Z,977.60
2022-12-14T05:31:59.500Z,977.59
2022-12-14T05:32:59.501Z,977.62
2022-12-14T05:33:59.502Z,977.60
2022-12-14T05:34:59.781Z,977.61
2022-12-14T05:35:59.463Z,977.67
2022-12-14T05:36:59.434Z,977.69
2022-12-14T05:37:59.451Z,977.75
2022-12-14T05:38:59.468Z,977.76
2022-12-14T05:39:59.419Z,977.76
2022-12-14T05:40:59.430Z,977.73
2022-12-14T05:41:59.412Z,977.70
2022-12-14T05:42:59.403Z,977.68
2022-12-14T05:43:59.411Z,977.67
2022-12-14T05:44:59.381Z,977.68
2022-12-14T05:45:59.405Z,977.66
2022-12-14T05:46:59.332Z,977.70
2022-12-14T05:47:59.365Z,977.64
2022-12-14T05:48:59.345Z,977.64
2022-12-14T05:49:59.312Z,977.59
2022-12-14T05:50:59.291Z,977.62
2022-12-14T05:51:59.291Z,977.58
2022-12-14T05:52:59.272Z,977.50
2022-12-14T05:53:59.309Z,977.56
2022-12-14T05:55:03.821Z,977.48
2022-12-14T05:56:00.271Z,977.42
2022-12-14T05:56:59.255Z,977.46
2022-12-14T05:57:59.261Z,977.45
2022-12-14T05:58:59.208Z,977.40
2022-12-14T05:59:59.241Z,977.41
2022-12-14T06:00:59.211Z,977.41
2022-12-14T06:01:59.404Z,977.40
2022-12-14T06:02:59.181Z,977.38
2022-12-14T06:03:59.233Z,977.40
2022-12-14T06:04:59.149Z,977.40
2022-12-14T06:05:59.166Z,977.42
2022-12-14T06:06:59.450Z,977.36
2022-12-14T06:07:59.139Z,977.34
2022-12-14T06:08:59.119Z,977.36
2022-12-14T06:09:59.110Z,977.32
2022-12-14T06:10:59.136Z,977.29
2022-12-14T06:11:59.139Z,977.32
2022-12-14T06:12:59.050Z,977.30
2022-12-14T06:13:59.071Z,977.23
2022-12-14T06:15:00.081Z,977.26
2022-12-14T06:15:59.121Z,977.24
2022-12-14T06:16:59.013Z,977.24
2022-12-14T06:18:00.740Z,977.25
2022-12-14T06:18:59.016Z,977.28
2022-12-14T06:19:59.020Z,977.32
2022-12-14T06:20:58.992Z,977.32
2022-12-14T06:21:59.031Z,977.34
2022-12-14T06:22:58.941Z,977.35
2022-12-14T06:23:58.950Z,977.35
2022-12-14T06:25:00.691Z,977.30
2022-12-14T06:25:58.940Z,977.31
2022-12-14T06:26:58.910Z,977.26
2022-12-14T06:27:58.982Z,977.28
2022-12-14T06:28:58.920Z,977.26
2022-12-14T06:29:58.901Z,977.25
2022-12-14T06:30:58.922Z,977.22
2022-12-14T06:31:58.872Z,977.13
2022-12-14T06:32:58.832Z,977.18
2022-12-14T06:33:58.871Z,977.12
2022-12-14T06:34:58.830Z,977.17
2022-12-14T06:35:58.853Z,977.15
2022-12-14T06:36:58.870Z,977.13
2022-12-14T06:37:58.830Z,977.12
2022-12-14T06:38:58.792Z,977.12
2022-12-14T06:39:58.832Z,977.10
2022-12-14T06:40:58.782Z,977.20
2022-12-14T06:41:58.886Z,977.14
2022-12-14T06:42:58.732Z,977.15
2022-12-14T06:43:58.748Z,977.20
2022-12-14T06:44:58.712Z,977.18
2022-12-14T06:45:58.732Z,977.13
2022-12-14T06:46:58.769Z,977.09
2022-12-14T06:47:58.693Z,977.11
2022-12-14T06:48:58.672Z,977.13
2022-12-14T06:49:58.682Z,977.09
2022-12-14T06:50:58.675Z,977.11
2022-12-14T06:51:58.662Z,977.04
2022-12-14T06:52:58.663Z,977.02
2022-12-14T06:53:58.621Z,977.02
2022-12-14T06:54:58.622Z,977.01
2022-12-14T06:55:58.614Z,976.99
2022-12-14T06:56:58.807Z,977.02
2022-12-14T06:57:58.624Z,976.98
2022-12-14T06:58:58.612Z,976.94
2022-12-14T06:59:58.574Z,976.90
2022-12-14T07:00:58.605Z,976.87
2022-12-14T07:01:58.612Z,976.86
2022-12-14T07:02:58.736Z,976.83
2022-12-14T07:03:58.511Z,976.85
2022-12-14T07:04:58.533Z,976.85
2022-12-14T07:05:58.492Z,976.84
2022-12-14T07:06:58.514Z,976.83
2022-12-14T07:07:58.483Z,976.81
2022-12-14T07:08:58.473Z,976.79
2022-12-14T07:09:58.442Z,976.79
2022-12-14T07:11:02.204Z,976.78
2022-12-14T07:11:58.381Z,976.78
2022-12-14T07:12:58.404Z,976.78
2022-12-14T07:13:58.412Z,976.76
2022-12-14T07:14:58.402Z,976.74
2022-12-14T07:15:58.478Z,976.72
2022-12-14T07:16:58.434Z,976.69
2022-12-14T07:17:58.361Z,976.67
2022-12-14T07:18:59.344Z,976.68
2022-12-14T07:19:58.342Z,976.65
2022-12-14T07:20:59.323Z,976.63
2022-12-14T07:21:58.882Z,976.60
2022-12-14T07:22:58.329Z,976.61
2022-12-14T07:23:58.303Z,976.63
2022-12-14T07:24:58.332Z,976.65
2022-12-14T07:25:58.273Z,976.67
2022-12-14T07:26:58.302Z,976.65
2022-12-14T07:27:58.303Z,976.67
2022-12-14T07:28:58.260Z,976.63
2022-12-14T07:29:58.270Z,976.64
2022-12-14T07:30:58.297Z,976.61
2022-12-14T07:31:58.223Z,976.59
2022-12-14T07:32:58.216Z,976.55
2022-12-14T07:33:58.223Z,976.59
2022-12-14T07:34:58.182Z,976.58
2022-12-14T07:35:58.202Z,976.54
2022-12-14T07:36:58.207Z,976.53
2022-12-14T07:37:58.207Z,976.54
2022-12-14T07:38:58.213Z,976.53
2022-12-14T07:39:58.152Z,976.52
2022-12-14T07:41:02.903Z,976.54
2022-12-14T07:41:58.122Z,976.58
2022-12-14T07:42:58.111Z,976.66
2022-12-14T07:43:58.128Z,976.65
2022-12-14T07:44:58.121Z,976.68
2022-12-14T07:45:58.155Z,976.61
2022-12-14T07:46:58.111Z,976.61
2022-12-14T07:47:58.084Z,976.61
2022-12-14T07:48:58.053Z,976.63
2022-12-14T07:49:58.044Z,976.53
2022-12-14T07:50:57.983Z,976.57
2022-12-14T07:51:57.964Z,976.55
2022-12-14T07:52:57.985Z,976.56
2022-12-14T07:53:57.936Z,976.54
2022-12-14T07:54:57.972Z,976.44
2022-12-14T07:55:58.363Z,976.42
2022-12-14T07:56:57.954Z,976.38
2022-12-14T07:57:57.978Z,976.39
2022-12-14T07:58:57.937Z,976.35
2022-12-14T08:00:55.062Z,976.39
2022-12-14T08:01:54.735Z,976.33
2022-12-14T08:02:54.675Z,976.34
2022-12-14T08:03:54.651Z,976.31
2022-12-14T08:04:54.619Z,976.33
2022-12-14T08:05:54.628Z,976.32
2022-12-14T08:06:54.569Z,976.35
2022-12-14T08:07:54.622Z,976.32
2022-12-14T08:08:54.561Z,976.30
2022-12-14T08:09:54.560Z,976.24
2022-12-14T08:10:54.521Z,976.18
2022-12-14T08:11:54.540Z,976.14
2022-12-14T08:12:54.821Z,976.10
2022-12-14T08:13:54.532Z,976.13
2022-12-14T08:14:54.491Z,976.08
2022-12-14T08:15:54.513Z,976.10
2022-12-14T08:16:55.137Z,976.09
2022-12-14T08:17:54.414Z,976.04
2022-12-14T08:18:54.402Z,976.03
2022-12-14T08:19:54.432Z,975.97
2022-12-14T08:20:54.361Z,976.02
2022-12-14T08:21:54.382Z,976.02
2022-12-14T08:22:54.361Z,976.06
2022-12-14T08:23:54.395Z,976.02
2022-12-14T08:24:54.362Z,976.00
2022-12-14T08:25:54.360Z,975.97
2022-12-14T08:26:54.322Z,975.93
2022-12-14T08:27:54.312Z,975.88
2022-12-14T08:28:54.312Z,975.86
2022-12-14T08:29:54.291Z,975.84
2022-12-14T08:30:54.285Z,975.88
2022-12-14T08:31:54.361Z,975.89
2022-12-14T08:32:54.262Z,975.95
2022-12-14T08:33:54.272Z,975.89
2022-12-14T08:34:54.225Z,975.94
2022-12-14T08:35:54.222Z,975.92
2022-12-14T08:36:54.213Z,975.85
2022-12-14T08:37:54.222Z,975.81
2022-12-14T08:38:54.183Z,975.79
2022-12-14T08:39:54.208Z,975.79
2022-12-14T08:40:54.152Z,975.74
2022-12-14T08:41:55.122Z,975.66
2022-12-14T08:42:54.352Z,975.68
2022-12-14T08:43:54.154Z,975.69
2022-12-14T08:44:54.121Z,975.70
2022-12-14T08:45:54.123Z,975.68
2022-12-14T08:46:54.148Z,975.67
2022-12-14T08:47:54.101Z,975.69
2022-12-14T08:48:55.040Z,975.66
2022-12-14T08:49:54.083Z,975.66
2022-12-14T08:50:54.062Z,975.72
2022-12-14T08:51:54.092Z,975.76
2022-12-14T08:52:54.052Z,975.81
2022-12-14T08:53:54.043Z,975.79
2022-12-14T08:54:54.032Z,975.82
2022-12-14T08:55:54.030Z,975.80
2022-12-14T08:56:54.012Z,975.87
2022-12-14T08:57:54.003Z,975.86
2022-12-14T08:58:54.043Z,975.89
2022-12-14T09:00:02.555Z,975.89
2022-12-14T09:00:54.992Z,975.88
2022-12-14T09:01:54.125Z,975.94
2022-12-14T09:02:54.037Z,975.95
2022-12-14T09:03:53.932Z,975.95
2022-12-14T09:04:53.962Z,976.02
2022-12-14T09:05:53.983Z,976.09
2022-12-14T09:06:53.897Z,976.07
2022-12-14T09:07:53.892Z,976.09
2022-12-14T09:08:53.871Z,976.10
2022-12-14T09:09:53.907Z,976.16
2022-12-14T09:10:53.862Z,976.15
2022-12-14T09:11:53.853Z,976.13
2022-12-14T09:12:53.832Z,976.22
2022-12-14T09:13:53.833Z,976.13
2022-12-14T09:14:53.833Z,976.16
2022-12-14T09:15:54.359Z,976.13
2022-12-14T09:16:53.792Z,976.15
2022-12-14T09:17:53.791Z,976.15
2022-12-14T09:18:53.792Z,976.08
2022-12-14T09:19:53.764Z,976.12
2022-12-14T09:20:53.782Z,976.08
2022-12-14T09:21:53.782Z,976.03
2022-12-14T09:22:53.763Z,976.05
2022-12-14T09:23:59.048Z,975.93
2022-12-14T09:24:54.711Z,975.99
2022-12-14T09:25:53.713Z,976.00
2022-12-14T09:26:53.690Z,975.97
2022-12-14T09:27:53.694Z,975.95
2022-12-14T09:28:53.702Z,975.97
2022-12-14T09:29:53.662Z,975.94
2022-12-14T09:30:53.641Z,975.97
2022-12-14T09:31:53.679Z,975.93
2022-12-14T09:32:53.622Z,975.94
2022-12-14T09:33:53.655Z,975.96
2022-12-14T09:34:53.613Z,975.92
2022-12-14T09:35:53.623Z,975.93
2022-12-14T09:36:53.576Z,975.93
2022-12-14T09:37:53.591Z,976.00
2022-12-14T09:38:53.572Z,975.95
2022-12-14T09:39:53.582Z,975.93
2022-12-14T09:40:53.553Z,975.95
2022-12-14T09:42:00.574Z,975.92
2022-12-14T09:42:54.523Z,975.94
2022-12-14T09:43:53.553Z,975.84
2022-12-14T09:44:53.541Z,975.83
2022-12-14T09:45:53.566Z,975.80
2022-12-14T09:46:53.491Z,975.81
2022-12-14T09:47:53.490Z,975.82
2022-12-14T09:48:53.454Z,975.73
2022-12-14T09:49:53.491Z,975.69
2022-12-14T09:50:53.472Z,975.70
2022-12-14T09:51:53.436Z,975.69
2022-12-14T09:52:53.453Z,975.71
2022-12-14T09:53:56.750Z,975.78
2022-12-14T09:54:54.395Z,975.72
2022-12-14T09:55:53.403Z,975.70
2022-12-14T09:56:53.370Z,975.72
2022-12-14T09:57:53.430Z,975.70
2022-12-14T09:58:53.390Z,975.70
2022-12-14T09:59:53.350Z,975.65
2022-12-14T10:00:54.099Z,975.62
2022-12-14T10:02:29.011Z,975.61
2022-12-14T10:02:54.466Z,975.63
2022-12-14T10:03:53.518Z,975.62
2022-12-14T10:04:53.313Z,975.61
2022-12-14T10:05:53.291Z,975.58
2022-12-14T10:06:53.283Z,975.62
2022-12-14T10:07:53.273Z,975.64
2022-12-14T10:08:54.916Z,975.63
2022-12-14T10:09:53.261Z,975.71
2022-12-14T10:10:53.237Z,975.66
2022-12-14T10:11:53.235Z,975.66
2022-12-14T10:12:53.204Z,975.56
2022-12-14T10:13:53.211Z,975.53
2022-12-14T10:14:53.242Z,975.44
2022-12-14T10:15:53.193Z,975.45
2022-12-14T10:16:53.321Z,975.42
2022-12-14T10:17:53.204Z,975.45
2022-12-14T10:19:01.948Z,975.40
2022-12-14T10:19:54.173Z,975.42
2022-12-14T10:20:53.124Z,975.42
2022-12-14T10:21:53.122Z,975.42
2022-12-14T10:22:53.106Z,975.45
2022-12-14T10:23:53.104Z,975.43
2022-12-14T10:24:53.095Z,975.47
2022-12-14T10:25:53.073Z,975.48
2022-12-14T10:26:53.074Z,975.45
2022-12-14T10:28:59.400Z,975.46
2022-12-14T10:29:54.065Z,975.52
2022-12-14T10:30:53.013Z,975.52
2022-12-14T10:31:53.082Z,975.52
2022-12-14T10:32:53.001Z,975.42
2022-12-14T10:33:53.043Z,975.40
2022-12-14T10:34:52.985Z,975.38
2022-12-14T10:35:52.993Z,975.31
2022-12-14T10:36:52.953Z,975.21
2022-12-14T10:37:52.958Z,975.14
2022-12-14T10:38:52.945Z,975.12
2022-12-14T10:39:53.586Z,975.14
2022-12-14T10:40:52.924Z,975.19
2022-12-14T10:41:52.926Z,975.17
2022-12-14T10:42:52.979Z,975.14
2022-12-14T10:43:52.912Z,975.19
2022-12-14T10:45:04.303Z,975.19
2022-12-14T10:45:53.921Z,975.15
2022-12-14T10:46:52.987Z,975.17
2022-12-14T10:47:52.883Z,975.13
2022-12-14T10:48:52.825Z,975.12
2022-12-14T10:49:52.834Z,975.10
2022-12-14T10:50:52.814Z,975.13
2022-12-14T10:51:52.824Z,975.14
2022-12-14T10:52:52.792Z,975.14
2022-12-14T10:53:52.808Z,975.14
2022-12-14T10:54:52.763Z,975.10
2022-12-14T10:55:52.785Z,975.11
2022-12-14T10:56:52.858Z,975.08
2022-12-14T10:57:52.744Z,975.06
2022-12-14T10:58:52.724Z,975.06
2022-12-14T11:00:07.715Z,975.02
2022-12-14T11:00:53.795Z,975.01
2022-12-14T11:01:52.948Z,974.99
2022-12-14T11:02:52.724Z,975.03
2022-12-14T11:03:52.694Z,974.92
2022-12-14T11:04:52.674Z,974.90
2022-12-14T11:05:52.825Z,974.90
2022-12-14T11:06:52.633Z,974.90
2022-12-14T11:07:52.667Z,974.83
2022-12-14T11:08:52.614Z,974.80
2022-12-14T11:09:52.614Z,974.88
2022-12-14T11:10:52.614Z,974.79
2022-12-14T11:11:52.661Z,974.76
2022-12-14T11:12:52.915Z,974.73
2022-12-14T11:13:52.597Z,974.72
2022-12-14T11:14:52.555Z,974.73
2022-12-14T11:15:52.560Z,974.72
2022-12-14T11:16:52.663Z,974.73
2022-12-14T11:17:52.721Z,974.72
2022-12-14T11:18:52.545Z,974.74
2022-12-14T11:19:52.525Z,974.65
2022-12-14T11:20:52.496Z,974.65
2022-12-14T11:21:52.516Z,974.59
2022-12-14T11:22:52.464Z,974.57
2022-12-14T11:23:52.922Z,974.54
2022-12-14T11:24:52.485Z,974.58
2022-12-14T11:25:53.137Z,974.52
2022-12-14T11:26:52.445Z,974.48
2022-12-14T11:27:52.436Z,974.51
2022-12-14T11:28:52.420Z,974.47
2022-12-14T11:29:52.421Z,974.46
2022-12-14T11:30:52.436Z,974.47
2022-12-14T11:31:52.421Z,974.51
2022-12-14T11:32:52.355Z,974.45
2022-12-14T11:33:52.364Z,974.43
2022-12-14T11:34:52.337Z,974.36
2022-12-14T11:35:52.357Z,974.34
2022-12-14T11:36:52.326Z,974.29
2022-12-14T11:37:52.364Z,974.29
2022-12-14T11:38:52.295Z,974.33
2022-12-14T11:39:52.306Z,974.28
2022-12-14T11:40:52.308Z,974.30
2022-12-14T11:41:52.355Z,974.30
2022-12-14T11:42:52.277Z,974.28
2022-12-14T11:43:52.256Z,974.25
2022-12-14T11:44:52.265Z,974.26
2022-12-14T11:45:52.282Z,974.23
2022-12-14T11:46:52.318Z,974.17
2022-12-14T11:47:52.234Z,974.15
2022-12-14T11:48:52.365Z,974.15
2022-12-14T11:49:52.225Z,974.14
2022-12-14T11:50:52.174Z,974.13
2022-12-14T11:51:52.185Z,974.11
2022-12-14T11:52:52.206Z,974.14
2022-12-14T11:53:52.164Z,974.15
2022-12-14T11:54:52.138Z,974.15
2022-12-14T11:55:52.136Z,974.17
2022-12-14T11:56:52.108Z,974.16
2022-12-14T11:57:52.135Z,974.21
2022-12-14T11:58:52.425Z,974.22
2022-12-14T11:59:52.095Z,974.26
2022-12-14T12:00:52.097Z,974.19
2022-12-14T12:01:52.146Z,974.23
2022-12-14T12:02:52.104Z,974.24
2022-12-14T12:03:52.136Z,974.24
2022-12-14T12:04:52.056Z,974.20
2022-12-14T12:05:52.695Z,974.23
2022-12-14T12:06:52.017Z,974.22
2022-12-14T12:07:52.429Z,974.23
2022-12-14T12:08:52.011Z,974.17
2022-12-14T12:09:51.977Z,974.21
2022-12-14T12:10:51.985Z,974.18
2022-12-14T12:11:52.007Z,974.16
2022-12-14T12:12:54.685Z,974.18
2022-12-14T12:13:51.955Z,974.17
2022-12-14T12:14:51.937Z,974.17
2022-12-14T12:15:51.988Z,974.19
2022-12-14T12:16:51.915Z,974.22
2022-12-14T12:17:51.886Z,974.22
2022-12-14T12:18:51.896Z,974.22
2022-12-14T12:19:51.896Z,974.22
2022-12-14T12:20:51.893Z,974.25
2022-12-14T12:21:51.865Z,974.21
2022-12-14T12:22:51.856Z,974.17
2022-12-14T12:23:51.827Z,974.21
2022-12-14T12:25:23.671Z,974.19
2022-12-14T12:25:52.846Z,974.22
2022-12-14T12:26:51.845Z,974.21
2022-12-14T12:27:51.791Z,974.20
2022-12-14T12:28:51.809Z,974.19
2022-12-14T12:29:51.777Z,974.22
2022-12-14T12:30:51.854Z,974.21